createdAt,value
2022-10-23T00:01:45.822Z,79.70
2022-10-23T00:03:56.171Z,79.70
2022-10-23T00:06:03.250Z,79.80
2022-10-23T00:08:10.186Z,80.00
2022-10-23T00:10:17.102Z,78.80
2022-10-23T00:12:24.025Z,78.50
2022-10-23T00:14:30.850Z,78.30
2022-10-23T00:16:38.543Z,78.30
2022-10-23T00:18:47.310Z,78.90
2022-10-23T00:20:54.443Z,79.60
2022-10-23T00:23:01.271Z,79.60
2022-10-23T00:25:09.217Z,79.90
2022-10-23T00:27:15.987Z,80.30
2022-10-23T00:29:23.988Z,80.00
2022-10-23T00:31:31.321Z,80.30
2022-10-23T00:33:40.347Z,80.50
2022-10-23T00:35:48.875Z,80.80
2022-10-23T00:37:56.194Z,80.30
2022-10-23T00:40:03.119Z,79.50
2022-10-23T00:42:10.404Z,79.20
2022-10-23T00:44:49.535Z,79.10
2022-10-23T00:46:56.816Z,79.70
2022-10-23T00:49:04.051Z,79.90
2022-10-23T00:51:12.977Z,79.30
2022-10-23T00:53:22.103Z,79.50
2022-10-23T00:55:30.000Z,79.70
2022-10-23T00:57:36.925Z,80.00
2022-10-23T00:59:46.003Z,79.90
2022-10-23T01:01:53.393Z,79.60
2022-10-23T01:04:00.676Z,79.70
2022-10-23T01:06:16.661Z,79.60
2022-10-23T01:08:32.138Z,79.70
2022-10-23T01:10:46.546Z,79.80
2022-10-23T01:12:58.819Z,79.50
2022-10-23T01:15:15.850Z,77.80
2022-10-23T01:17:32.419Z,76.90
2022-10-23T01:19:53.512Z,76.70
2022-10-23T01:22:15.691Z,76.50
2022-10-23T01:24:34.138Z,75.20
2022-10-23T01:27:00.469Z,75.70
2022-10-23T01:29:17.789Z,76.20
2022-10-23T01:31:33.944Z,76.40
2022-10-23T01:33:44.747Z,76.50
2022-10-23T01:35:55.464Z,76.30
2022-10-23T01:38:08.938Z,75.50
2022-10-23T01:40:21.295Z,76.10
2022-10-23T01:42:32.316Z,76.30
2022-10-23T01:44:45.195Z,76.30
2022-10-23T01:46:53.333Z,75.60
2022-10-23T01:49:02.105Z,76.10
2022-10-23T01:51:12.101Z,76.10
2022-10-23T01:53:19.492Z,75.60
2022-10-23T01:55:27.926Z,74.30
2022-10-23T01:57:40.920Z,74.30
2022-10-23T01:59:53.781Z,74.40
2022-10-23T02:02:02.295Z,73.30
2022-10-23T02:04:13.676Z,72.30
2022-10-23T02:06:21.065Z,72.10
2022-10-23T02:08:28.202Z,72.30
2022-10-23T02:10:41.979Z,71.40
2022-10-23T02:13:01.142Z,71.80
2022-10-23T02:15:16.370Z,71.60
2022-10-23T02:17:29.787Z,70.80
2022-10-23T02:19:46.092Z,71.90
2022-10-23T02:21:56.918Z,69.10
2022-10-23T02:26:28.435Z,71.80
2022-10-23T02:28:41.342Z,70.60
2022-10-23T02:30:53.255Z,70.20
2022-10-23T02:33:01.547Z,70.90
2022-10-23T02:35:09.257Z,70.30
2022-10-23T02:37:16.700Z,69.90
2022-10-23T02:39:25.591Z,71.10
2022-10-23T02:41:47.935Z,69.80
2022-10-23T02:44:06.691Z,68.70
2022-10-23T02:46:24.216Z,68.80
2022-10-23T02:48:37.642Z,68.10
2022-10-23T02:50:55.719Z,68.00
2022-10-23T02:53:09.915Z,68.10
2022-10-23T02:55:26.775Z,66.70
2022-10-23T02:57:35.938Z,67.20
2022-10-23T02:59:48.193Z,67.60
2022-10-23T03:02:05.335Z,65.50
2022-10-23T03:04:17.735Z,66.90
2022-10-23T03:06:25.937Z,63.70
2022-10-23T03:08:32.557Z,64.00
2022-10-23T03:10:39.543Z,65.00
2022-10-23T03:12:48.120Z,64.60
2022-10-23T03:14:55.071Z,64.20
2022-10-23T03:17:03.305Z,64.50
2022-10-23T03:21:18.525Z,64.20
2022-10-23T03:23:30.046Z,64.00
2022-10-23T03:25:36.625Z,63.60
2022-10-23T03:27:43.820Z,64.80
2022-10-23T03:29:54.558Z,65.00
2022-10-23T03:32:03.087Z,64.60
2022-10-23T03:34:12.170Z,64.80
2022-10-23T03:36:20.206Z,65.20
2022-10-23T03:38:26.983Z,64.20
2022-10-23T03:40:33.544Z,63.60
2022-10-23T03:42:40.066Z,63.40
2022-10-23T03:44:47.967Z,62.90
2022-10-23T03:46:54.595Z,63.50
2022-10-23T03:49:02.847Z,62.00
2022-10-23T03:51:10.149Z,61.50
2022-10-23T03:53:19.932Z,61.00
2022-10-23T03:55:28.153Z,60.00
2022-10-23T03:57:35.224Z,59.00
2022-10-23T03:59:41.765Z,59.60
2022-10-23T04:01:48.528Z,58.10
2022-10-23T04:03:55.216Z,58.00
2022-10-23T04:06:05.517Z,57.60
2022-10-23T04:08:14.185Z,57.90
2022-10-23T04:10:24.434Z,58.30
2022-10-23T04:12:31.010Z,57.80
2022-10-23T04:14:38.048Z,56.50
2022-10-23T04:16:44.713Z,56.60
2022-10-23T04:18:51.625Z,56.00
2022-10-23T04:20:58.305Z,55.30
2022-10-23T04:23:06.523Z,55.40
2022-10-23T04:25:14.018Z,54.70
2022-10-23T04:27:20.550Z,54.40
2022-10-23T04:29:27.909Z,54.80
2022-10-23T04:31:34.775Z,54.90
2022-10-23T04:33:41.799Z,55.10
2022-10-23T04:35:48.714Z,55.10
2022-10-23T04:37:55.965Z,54.40
2022-10-23T04:40:04.820Z,54.80
2022-10-23T04:42:14.686Z,53.00
2022-10-23T04:44:21.397Z,53.20
2022-10-23T04:46:28.461Z,53.10
2022-10-23T04:48:35.345Z,53.70
2022-10-23T04:51:09.862Z,53.30
2022-10-23T04:53:39.919Z,53.20
2022-10-23T04:56:01.780Z,52.50
2022-10-23T04:58:24.960Z,53.30
2022-10-23T05:00:32.072Z,51.30
2022-10-23T05:02:38.777Z,51.20
2022-10-23T05:04:48.023Z,52.00
2022-10-23T05:07:15.146Z,51.80
2022-10-23T05:09:38.079Z,51.80
2022-10-23T05:12:07.407Z,50.80
2022-10-23T05:14:16.326Z,51.20
2022-10-23T05:16:37.166Z,51.70
2022-10-23T05:18:48.545Z,51.60
2022-10-23T05:20:59.275Z,51.80
2022-10-23T05:23:09.710Z,52.10
2022-10-23T05:25:16.927Z,51.50
2022-10-23T05:27:31.044Z,50.30
2022-10-23T05:29:38.073Z,50.60
2022-10-23T05:31:44.670Z,50.60
2022-10-23T05:33:52.142Z,50.30
2022-10-23T05:36:01.582Z,49.90
2022-10-23T05:38:10.054Z,50.50
2022-10-23T05:40:17.624Z,50.80
2022-10-23T05:42:27.362Z,50.10
2022-10-23T05:44:38.134Z,49.40
2022-10-23T05:47:03.039Z,49.30
2022-10-23T05:49:35.409Z,49.60
2022-10-23T05:52:00.059Z,50.10
2022-10-23T05:54:15.522Z,49.50
2022-10-23T05:56:45.001Z,48.40
2022-10-23T05:59:23.036Z,48.00
2022-10-23T06:01:38.336Z,47.50
2022-10-23T06:03:46.644Z,48.00
2022-10-23T06:05:53.978Z,47.40
2022-10-23T06:08:03.141Z,47.70
2022-10-23T06:10:10.714Z,48.00
2022-10-23T06:12:23.023Z,47.20
2022-10-23T06:14:32.306Z,48.60
2022-10-23T06:16:41.026Z,48.60
2022-10-23T06:18:48.803Z,47.90
2022-10-23T06:20:57.528Z,47.90
2022-10-23T06:23:06.897Z,48.30
2022-10-23T06:25:33.369Z,48.20
2022-10-23T06:27:43.422Z,47.90
2022-10-23T06:29:51.035Z,48.10
2022-10-23T06:31:59.416Z,47.00
2022-10-23T06:34:07.078Z,46.40
2022-10-23T06:36:13.894Z,47.50
2022-10-23T06:38:22.333Z,48.00
2022-10-23T06:40:34.171Z,48.20
2022-10-23T06:42:44.614Z,48.00
2022-10-23T06:45:06.430Z,47.80
2022-10-23T06:47:29.702Z,48.50
2022-10-23T06:49:54.447Z,47.90
2022-10-23T06:52:01.854Z,48.80
2022-10-23T06:54:08.617Z,48.80
2022-10-23T06:56:36.110Z,48.80
2022-10-23T06:58:45.959Z,48.50
2022-10-23T07:00:55.074Z,48.40
2022-10-23T07:03:03.321Z,48.10
2022-10-23T07:05:13.533Z,49.10
2022-10-23T07:07:21.938Z,48.80
2022-10-23T07:09:29.166Z,48.60
2022-10-23T07:11:36.422Z,48.80
2022-10-23T07:13:45.466Z,48.90
2022-10-23T07:15:57.089Z,48.90
2022-10-23T07:18:07.322Z,48.90
2022-10-23T07:20:33.582Z,49.60
2022-10-23T07:22:40.872Z,49.10
2022-10-23T07:24:53.426Z,49.60
2022-10-23T07:27:11.380Z,49.00
2022-10-23T07:29:18.287Z,49.60
2022-10-23T07:31:28.291Z,49.90
2022-10-23T07:33:55.512Z,50.00
2022-10-23T07:36:03.060Z,49.40
2022-10-23T07:38:09.667Z,49.20
2022-10-23T07:40:21.255Z,50.00
2022-10-23T07:42:30.375Z,47.10
2022-10-23T07:44:37.446Z,49.40
2022-10-23T07:46:44.059Z,48.50
2022-10-23T07:48:50.915Z,49.30
2022-10-23T07:51:04.029Z,48.40
2022-10-23T07:53:14.291Z,49.70
2022-10-23T07:55:25.806Z,50.20
2022-10-23T07:57:41.726Z,50.90
2022-10-23T08:00:04.758Z,48.70
2022-10-23T08:02:21.717Z,50.20
2022-10-23T08:04:30.393Z,50.30
2022-10-23T08:06:57.236Z,50.30
2022-10-23T08:09:06.787Z,49.70
2022-10-23T08:11:18.271Z,49.90
2022-10-23T08:13:29.666Z,49.40
2022-10-23T08:15:40.639Z,50.30
2022-10-23T08:17:57.553Z,49.30
2022-10-23T08:20:24.175Z,49.30
2022-10-23T08:22:32.509Z,49.30
2022-10-23T08:24:39.083Z,48.90
2022-10-23T08:26:45.793Z,49.10
2022-10-23T08:28:53.480Z,49.00
2022-10-23T08:31:02.116Z,49.00
2022-10-23T08:33:09.115Z,49.60
2022-10-23T08:35:15.750Z,50.20
2022-10-23T08:37:22.539Z,48.90
2022-10-23T08:39:30.841Z,49.40
2022-10-23T08:41:58.960Z,49.70
2022-10-23T08:44:12.696Z,49.90
2022-10-23T08:46:28.051Z,49.60
2022-10-23T08:49:02.993Z,49.80
2022-10-23T08:51:28.714Z,50.30
2022-10-23T08:53:41.117Z,49.50
2022-10-23T08:55:55.288Z,49.90
2022-10-23T08:58:06.551Z,50.80
2022-10-23T09:00:18.126Z,51.10
2022-10-23T09:02:29.251Z,52.10
2022-10-23T09:04:36.542Z,50.70
2022-10-23T09:06:48.984Z,50.30
2022-10-23T09:09:07.682Z,50.00
2022-10-23T09:11:24.141Z,49.80
2022-10-23T09:13:43.658Z,49.30
2022-10-23T09:15:55.647Z,50.20
2022-10-23T09:18:05.670Z,50.70
2022-10-23T09:20:20.898Z,51.50
2022-10-23T09:22:27.999Z,52.20
2022-10-23T09:24:37.422Z,52.50
2022-10-23T09:26:49.255Z,52.50
2022-10-23T09:28:56.315Z,52.80
2022-10-23T09:31:11.118Z,53.80
2022-10-23T09:33:18.911Z,52.30
2022-10-23T09:35:27.349Z,52.70
2022-10-23T09:37:36.817Z,51.70
2022-10-23T09:39:43.384Z,52.60
2022-10-23T09:41:54.160Z,53.30
2022-10-23T09:44:20.312Z,53.90
2022-10-23T09:46:27.695Z,54.30
2022-10-23T09:48:34.638Z,54.60
2022-10-23T09:50:45.477Z,54.90
2022-10-23T09:53:01.592Z,54.80
2022-10-23T09:55:24.055Z,54.30
2022-10-23T09:57:34.854Z,53.50
2022-10-23T09:59:41.426Z,54.00
2022-10-23T10:01:51.929Z,54.40
2022-10-23T10:04:18.421Z,54.80
2022-10-23T10:06:30.681Z,55.20
2022-10-23T10:08:45.191Z,55.40
2022-10-23T10:10:55.211Z,55.80
2022-10-23T10:13:08.549Z,56.40
2022-10-23T10:15:25.796Z,56.80
2022-10-23T10:17:43.591Z,57.40
2022-10-23T10:20:07.176Z,58.40
2022-10-23T10:22:25.829Z,60.80
2022-10-23T10:24:39.632Z,62.80
2022-10-23T10:26:54.579Z,63.90
2022-10-23T10:29:15.692Z,65.10
2022-10-23T10:31:28.912Z,66.60
2022-10-23T10:33:43.829Z,67.10
2022-10-23T10:36:00.687Z,67.80
2022-10-23T10:38:27.202Z,68.70
2022-10-23T10:40:37.070Z,69.10
2022-10-23T10:43:12.005Z,68.40
2022-10-23T10:45:34.058Z,69.60
2022-10-23T10:47:48.438Z,71.50
2022-10-23T10:50:11.841Z,71.10
2022-10-23T10:52:32.893Z,72.50
2022-10-23T10:54:51.594Z,72.90
2022-10-23T10:57:01.209Z,73.70
2022-10-23T10:59:15.259Z,73.90
2022-10-23T11:01:28.036Z,74.50
2022-10-23T11:03:41.239Z,75.00
2022-10-23T11:05:49.907Z,75.30
2022-10-23T11:08:00.320Z,75.30
2022-10-23T11:10:17.637Z,75.40
2022-10-23T11:12:28.022Z,74.90
2022-10-23T11:14:36.743Z,75.70
2022-10-23T11:16:49.597Z,76.70
2022-10-23T11:19:11.353Z,77.30
2022-10-23T11:21:29.624Z,77.00
2022-10-23T11:24:16.948Z,79.00
2022-10-23T11:26:37.953Z,77.10
2022-10-23T11:29:01.793Z,76.00
2022-10-23T11:31:20.076Z,75.50
2022-10-23T11:33:58.096Z,76.10
2022-10-23T11:36:19.434Z,77.60
2022-10-23T11:38:30.941Z,78.30
2022-10-23T11:40:37.672Z,78.20
2022-10-23T11:42:51.763Z,78.70
2022-10-23T11:44:58.694Z,79.00
2022-10-23T11:47:07.150Z,78.70
2022-10-23T11:49:25.257Z,78.70
2022-10-23T11:51:34.440Z,78.50
2022-10-23T11:53:44.261Z,77.60
2022-10-23T11:56:09.138Z,77.90
2022-10-23T11:58:22.852Z,78.20
2022-10-23T12:00:34.092Z,78.50
2022-10-23T12:02:44.039Z,80.10
2022-10-23T12:04:55.342Z,81.30
2022-10-23T12:07:03.645Z,82.10
2022-10-23T12:09:25.767Z,81.80
2022-10-23T12:11:45.857Z,81.70
2022-10-23T12:13:52.574Z,81.90
2022-10-23T12:16:00.953Z,82.00
2022-10-23T12:18:19.087Z,81.80
2022-10-23T12:20:41.088Z,81.60
2022-10-23T12:22:49.982Z,81.90
2022-10-23T12:25:03.811Z,84.30
2022-10-23T12:27:23.284Z,82.90
2022-10-23T12:29:48.989Z,83.30
2022-10-23T12:32:04.307Z,83.10
2022-10-23T12:34:21.622Z,83.10
2022-10-23T12:36:54.168Z,82.90
2022-10-23T12:39:02.116Z,83.30
2022-10-23T12:41:16.010Z,83.70
2022-10-23T12:43:30.467Z,83.60
2022-10-23T12:45:44.381Z,83.50
2022-10-23T12:48:04.469Z,84.30
2022-10-23T12:50:21.448Z,84.50
2022-10-23T12:52:42.570Z,85.00
2022-10-23T12:57:26.279Z,84.60
2022-10-23T12:59:43.053Z,83.80
2022-10-23T13:01:52.777Z,83.50
2022-10-23T13:04:03.289Z,83.70
2022-10-23T13:06:16.204Z,84.80
2022-10-23T13:08:28.304Z,84.60
2022-10-23T13:11:03.860Z,84.60
2022-10-23T13:13:25.827Z,84.90
2022-10-23T13:15:42.050Z,85.10
2022-10-23T13:17:50.216Z,85.60
2022-10-23T13:19:56.693Z,85.40
2022-10-23T13:22:03.968Z,85.30
2022-10-23T13:24:23.661Z,85.50
2022-10-23T13:26:35.559Z,85.80
2022-10-23T13:28:46.341Z,85.70
2022-10-23T13:31:04.393Z,86.00
2022-10-23T13:33:19.022Z,86.80
2022-10-23T13:35:26.657Z,87.30
2022-10-23T13:37:34.699Z,87.20
2022-10-23T13:39:42.914Z,87.50
2022-10-23T13:41:50.168Z,87.10
2022-10-23T13:43:57.728Z,87.40
2022-10-23T13:46:04.867Z,87.30
2022-10-23T13:48:17.117Z,87.00
2022-10-23T13:50:24.086Z,87.10
2022-10-23T13:52:31.095Z,87.10
2022-10-23T13:54:37.668Z,87.30
2022-10-23T13:56:45.766Z,87.50
2022-10-23T13:58:52.631Z,87.20
2022-10-23T14:01:01.983Z,86.60
2022-10-23T14:03:08.703Z,86.50
2022-10-23T14:05:15.872Z,87.00
2022-10-23T14:07:23.585Z,86.80
2022-10-23T14:09:32.715Z,86.40
2022-10-23T14:11:39.259Z,86.30
2022-10-23T14:13:48.097Z,86.80
2022-10-23T14:15:57.333Z,86.70
2022-10-23T14:18:08.080Z,86.60
2022-10-23T14:20:17.387Z,86.60
2022-10-23T14:22:26.005Z,86.50
2022-10-23T14:24:32.462Z,86.30
2022-10-23T14:26:39.209Z,85.20
2022-10-23T14:28:47.384Z,85.10
2022-10-23T14:30:54.249Z,85.30
2022-10-23T14:33:01.010Z,85.20
2022-10-23T14:35:08.152Z,84.50
2022-10-23T14:37:15.263Z,84.50
2022-10-23T14:39:21.997Z,84.80
2022-10-23T14:41:30.564Z,85.10
2022-10-23T14:43:37.063Z,85.30
2022-10-23T14:45:45.226Z,85.30
2022-10-23T14:47:51.789Z,85.40
2022-10-23T14:49:59.177Z,85.50
2022-10-23T14:52:05.902Z,86.10
2022-10-23T14:54:12.440Z,86.50
2022-10-23T14:56:19.281Z,86.60
2022-10-23T14:58:25.843Z,86.60
2022-10-23T15:00:32.609Z,86.60
2022-10-23T15:02:41.131Z,87.00
2022-10-23T15:04:47.844Z,87.00
2022-10-23T15:06:54.783Z,86.90
2022-10-23T15:09:01.371Z,86.70
2022-10-23T15:11:12.540Z,86.80
2022-10-23T15:13:19.489Z,87.40
2022-10-23T15:15:26.170Z,87.30
2022-10-23T15:17:33.243Z,87.50
2022-10-23T15:19:41.574Z,87.40
2022-10-23T15:21:48.306Z,87.10
2022-10-23T15:23:57.031Z,86.90
2022-10-23T15:26:05.182Z,86.70
2022-10-23T15:28:11.733Z,87.20
2022-10-23T15:30:18.497Z,87.20
2022-10-23T15:32:25.607Z,87.20
2022-10-23T15:34:33.370Z,87.50
2022-10-23T15:36:41.665Z,87.90
2022-10-23T15:38:48.282Z,88.20
2022-10-23T15:41:02.350Z,88.40
2022-10-23T15:43:12.466Z,89.20
2022-10-23T15:45:20.006Z,90.10
2022-10-23T15:47:26.596Z,91.20
2022-10-23T15:49:33.672Z,91.60
2022-10-23T15:51:42.917Z,91.80
2022-10-23T15:53:49.750Z,92.40
2022-10-23T15:55:56.864Z,92.50
2022-10-23T15:58:05.812Z,92.40
2022-10-23T16:00:19.573Z,92.30
2022-10-23T16:02:27.098Z,92.40
2022-10-23T16:04:34.191Z,92.50
2022-10-23T16:06:42.577Z,92.50
2022-10-23T16:08:49.760Z,92.60
2022-10-23T16:10:56.304Z,92.60
2022-10-23T16:13:03.177Z,92.40
2022-10-23T16:15:10.577Z,92.50
2022-10-23T16:17:17.341Z,92.40
2022-10-23T16:19:24.024Z,92.10
2022-10-23T16:21:33.023Z,92.20
2022-10-23T16:23:41.278Z,92.20
2022-10-23T16:25:48.207Z,92.10
2022-10-23T16:27:54.714Z,91.40
2022-10-23T16:30:01.630Z,89.20
2022-10-23T16:32:08.572Z,86.50
2022-10-23T16:34:15.560Z,86.40
2022-10-23T16:36:23.179Z,85.40
2022-10-23T16:39:05.457Z,83.90
2022-10-23T16:41:30.847Z,82.30
2022-10-23T16:43:40.654Z,81.50
2022-10-23T16:46:09.065Z,80.50
2022-10-23T16:48:15.999Z,80.20
2022-10-23T16:50:22.480Z,80.40
2022-10-23T16:52:29.320Z,79.80
2022-10-23T16:54:37.738Z,79.50
2022-10-23T16:56:45.901Z,78.90
2022-10-23T16:58:52.500Z,78.20
2022-10-23T17:01:04.419Z,78.30
2022-10-23T17:03:11.872Z,77.70
2022-10-23T17:05:18.902Z,77.50
2022-10-23T17:07:25.974Z,77.40
2022-10-23T17:09:33.102Z,75.80
2022-10-23T17:11:43.007Z,76.10
2022-10-23T17:13:53.647Z,76.20
2022-10-23T17:16:12.244Z,76.10
2022-10-23T17:18:18.773Z,75.40
2022-10-23T17:20:25.398Z,75.40
2022-10-23T17:22:31.888Z,75.60
2022-10-23T17:24:38.481Z,75.60
2022-10-23T17:26:46.863Z,75.50
2022-10-23T17:28:53.514Z,75.50
2022-10-23T17:31:00.691Z,75.60
2022-10-23T17:33:07.248Z,75.50
2022-10-23T17:35:14.222Z,75.60
2022-10-23T17:37:20.787Z,75.60
2022-10-23T17:39:30.350Z,75.50
2022-10-23T17:41:37.077Z,75.60
2022-10-23T17:43:45.932Z,75.60
2022-10-23T17:45:52.431Z,75.60
2022-10-23T17:47:58.977Z,75.30
2022-10-23T17:50:07.506Z,75.30
2022-10-23T17:52:15.921Z,75.30
2022-10-23T17:54:22.972Z,75.30
2022-10-23T17:56:32.272Z,75.20
2022-10-23T17:58:39.181Z,75.40
2022-10-23T18:00:47.813Z,75.80
2022-10-23T18:02:54.370Z,75.90
2022-10-23T18:05:01.656Z,76.00
2022-10-23T18:07:08.261Z,76.20
2022-10-23T18:09:15.756Z,76.60
2022-10-23T18:11:23.993Z,77.00
2022-10-23T18:13:30.852Z,77.40
2022-10-23T18:15:38.252Z,77.60
2022-10-23T18:17:46.586Z,78.10
2022-10-23T18:19:56.437Z,78.40
2022-10-23T18:22:06.529Z,78.20
2022-10-23T18:24:13.160Z,77.90
2022-10-23T18:26:21.551Z,78.10
2022-10-23T18:28:28.914Z,78.20
2022-10-23T18:32:51.881Z,80.20
2022-10-23T18:34:58.342Z,80.30
2022-10-23T18:37:04.891Z,80.80
2022-10-23T18:39:14.176Z,80.90
2022-10-23T18:41:24.554Z,81.20
2022-10-23T18:43:43.198Z,81.90
2022-10-23T18:45:50.169Z,82.30
2022-10-23T18:47:58.678Z,82.70
2022-10-23T18:50:05.244Z,82.20
2022-10-23T18:52:11.812Z,82.40
2022-10-23T18:54:19.636Z,82.50
2022-10-23T18:56:27.897Z,82.70
2022-10-23T18:58:34.416Z,83.10
2022-10-23T19:00:42.742Z,83.30
2022-10-23T19:02:52.281Z,83.90
2022-10-23T19:05:01.050Z,84.30
2022-10-23T19:07:07.765Z,84.70
2022-10-23T19:09:16.265Z,84.40
2022-10-23T19:11:25.458Z,83.90
2022-10-23T19:13:36.500Z,84.10
2022-10-23T19:15:45.729Z,84.30
2022-10-23T19:17:54.871Z,84.60
2022-10-23T19:20:05.182Z,85.00
2022-10-23T19:22:12.970Z,85.30
2022-10-23T19:24:23.779Z,85.20
2022-10-23T19:26:32.421Z,84.80
2022-10-23T19:28:39.601Z,85.10
2022-10-23T19:30:46.274Z,85.90
2022-10-23T19:32:53.042Z,85.60
2022-10-23T19:34:59.563Z,85.50
2022-10-23T19:37:08.429Z,85.20
2022-10-23T19:39:15.077Z,85.90
2022-10-23T19:41:21.629Z,86.60
2022-10-23T19:43:28.180Z,87.10
2022-10-23T19:45:34.772Z,87.90
2022-10-23T19:47:41.876Z,88.60
2022-10-23T19:49:51.666Z,88.50
2022-10-23T19:51:58.160Z,88.30
2022-10-23T19:54:06.942Z,88.20
2022-10-23T19:56:14.552Z,88.10
2022-10-23T19:58:21.583Z,88.10
2022-10-23T20:00:29.039Z,88.10
2022-10-23T20:02:37.749Z,88.60
2022-10-23T20:04:44.219Z,88.50
2022-10-23T20:06:51.135Z,88.40
2022-10-23T20:08:57.988Z,88.40
2022-10-23T20:11:06.214Z,88.70
2022-10-23T20:13:19.841Z,89.00
2022-10-23T20:15:26.895Z,88.80
2022-10-23T20:17:33.467Z,88.90
2022-10-23T20:19:40.351Z,88.70
2022-10-23T20:21:48.566Z,88.90
2022-10-23T20:23:55.380Z,88.60
2022-10-23T20:26:09.582Z,88.60
2022-10-23T20:28:16.228Z,88.70
2022-10-23T20:30:22.904Z,89.10
2022-10-23T20:32:29.496Z,89.50
2022-10-23T20:34:36.511Z,90.30
2022-10-23T20:36:46.758Z,90.90
2022-10-23T20:38:53.985Z,91.40
2022-10-23T20:41:04.870Z,92.00
2022-10-23T20:43:13.005Z,92.70
2022-10-23T20:45:19.608Z,93.10
2022-10-23T20:47:26.810Z,93.00
2022-10-23T20:49:33.377Z,93.00
2022-10-23T20:51:40.015Z,92.80
2022-10-23T20:53:47.250Z,93.10
2022-10-23T20:55:53.836Z,93.50
2022-10-23T20:58:00.435Z,94.00
2022-10-23T21:00:09.724Z,94.40
2022-10-23T21:02:16.413Z,94.50
2022-10-23T21:04:25.320Z,94.70
2022-10-23T21:06:45.766Z,94.80
2022-10-23T21:09:01.504Z,94.40
2022-10-23T21:11:08.941Z,94.40
2022-10-23T21:13:15.691Z,94.00
2022-10-23T21:15:24.074Z,93.50
2022-10-23T21:19:38.390Z,92.70
2022-10-23T21:21:45.034Z,92.50
2022-10-23T21:23:52.884Z,92.50
2022-10-23T21:26:02.250Z,92.50
2022-10-23T21:28:10.956Z,92.50
2022-10-23T21:30:17.581Z,93.40
2022-10-23T21:32:26.052Z,92.50
2022-10-23T21:34:33.062Z,91.70
2022-10-23T21:36:54.159Z,91.30
2022-10-23T21:39:07.243Z,91.10
2022-10-23T21:41:17.289Z,91.50
2022-10-23T21:43:23.813Z,91.50
2022-10-23T21:45:30.490Z,91.70
2022-10-23T21:47:39.103Z,92.30
2022-10-23T21:49:45.750Z,92.70
2022-10-23T21:51:52.367Z,92.70
2022-10-23T21:53:59.831Z,93.00
2022-10-23T21:56:08.525Z,92.90
2022-10-23T21:58:15.339Z,92.90
2022-10-23T22:00:22.527Z,92.70
2022-10-23T22:02:29.785Z,92.70
2022-10-23T22:04:38.776Z,92.70
2022-10-23T22:06:46.083Z,92.40
2022-10-23T22:08:53.590Z,92.20
2022-10-23T22:11:00.204Z,92.30
2022-10-23T22:13:06.748Z,92.50
2022-10-23T22:15:13.948Z,92.60
2022-10-23T22:17:20.535Z,93.20
2022-10-23T22:19:27.471Z,94.50
2022-10-23T22:21:36.037Z,94.80
2022-10-23T22:23:43.313Z,95.30
2022-10-23T22:25:49.775Z,95.80
2022-10-23T22:27:56.483Z,95.80
2022-10-23T22:30:04.711Z,95.80
2022-10-23T22:32:11.504Z,95.80
2022-10-23T22:34:27.279Z,95.70
2022-10-23T22:36:49.710Z,95.60
2022-10-23T22:38:57.262Z,95.50
2022-10-23T22:41:04.923Z,95.50
2022-10-23T22:43:11.394Z,95.50
2022-10-23T22:45:18.193Z,95.50
2022-10-23T22:47:24.855Z,95.20
2022-10-23T22:49:31.770Z,95.00
2022-10-23T22:51:38.295Z,94.50
2022-10-23T22:53:47.747Z,94.00
2022-10-23T22:55:54.285Z,94.00
2022-10-23T22:58:01.111Z,93.90
2022-10-23T23:00:09.281Z,93.90
2022-10-23T23:02:16.267Z,93.90
2022-10-23T23:04:39.014Z,94.10
2022-10-23T23:06:46.852Z,94.70
2022-10-23T23:08:55.512Z,95.20
2022-10-23T23:11:02.752Z,95.40
2022-10-23T23:13:09.315Z,95.00
2022-10-23T23:15:16.107Z,94.80
2022-10-23T23:17:22.754Z,94.90
2022-10-23T23:19:29.837Z,94.80
2022-10-23T23:21:36.746Z,94.70
2022-10-23T23:23:43.601Z,94.80
2022-10-23T23:25:52.908Z,94.80
2022-10-23T23:27:59.766Z,94.70
2022-10-23T23:30:07.343Z,94.60
2022-10-23T23:32:15.174Z,94.70
2022-10-23T23:34:21.760Z,94.70
2022-10-23T23:36:30.456Z,94.70
2022-10-23T23:38:37.026Z,94.60
2022-10-23T23:40:43.919Z,94.80
2022-10-23T23:42:52.036Z,95.10
2022-10-23T23:45:02.850Z,95.30
2022-10-23T23:47:20.197Z,95.70
2022-10-23T23:49:27.333Z,95.80
2022-10-23T23:51:34.132Z,96.00
2022-10-23T23:53:41.014Z,96.20
2022-10-23T23:55:47.535Z,96.00
2022-10-23T23:57:56.106Z,96.10
